createdAt,value
2023-02-15T00:00:02.646Z,11.43
2023-02-15T00:02:29.275Z,12.40
2023-02-15T00:04:57.274Z,11.63
2023-02-15T00:07:24.414Z,10.63
2023-02-15T00:09:51.029Z,12.93
2023-02-15T00:12:20.169Z,11.93
2023-02-15T00:14:46.800Z,12.27
2023-02-15T00:17:13.442Z,12.37
2023-02-15T00:19:41.106Z,12.20
2023-02-15T00:22:13.904Z,13.30
2023-02-15T00:24:40.611Z,11.10
2023-02-15T00:27:07.295Z,12.13
2023-02-15T00:29:34.177Z,11.00
2023-02-15T00:32:00.908Z,10.70
2023-02-15T00:34:28.663Z,12.77
2023-02-15T00:36:55.422Z,11.40
2023-02-15T00:39:22.363Z,13.70
2023-02-15T00:41:49.027Z,11.37
2023-02-15T00:44:16.197Z,12.80
2023-02-15T00:46:43.006Z,11.83
2023-02-15T00:49:13.818Z,12.00
2023-02-15T00:51:40.623Z,12.37
2023-02-15T00:54:07.611Z,11.00
2023-02-15T00:56:34.388Z,12.70
2023-02-15T00:59:01.030Z,11.37
2023-02-15T01:01:27.815Z,12.43
2023-02-15T01:03:54.548Z,11.10
2023-02-15T01:06:21.346Z,9.97
2023-02-15T01:08:48.339Z,10.00
2023-02-15T01:11:23.005Z,10.13
2023-02-15T01:13:55.257Z,9.93
2023-02-15T01:16:22.566Z,9.23
2023-02-15T01:18:49.471Z,9.53
2023-02-15T01:21:18.094Z,9.70
2023-02-15T01:23:44.925Z,10.00
2023-02-15T01:26:11.552Z,9.50
2023-02-15T01:28:38.834Z,9.73
2023-02-15T01:31:13.954Z,10.07
2023-02-15T01:33:40.802Z,10.03
2023-02-15T01:36:07.563Z,10.90
2023-02-15T01:38:35.598Z,9.80
2023-02-15T01:41:21.024Z,10.37
2023-02-15T01:43:50.056Z,10.27
2023-02-15T01:46:19.092Z,10.17
2023-02-15T01:48:48.860Z,9.43
2023-02-15T01:51:19.973Z,9.73
2023-02-15T01:53:55.326Z,9.43
2023-02-15T01:56:24.989Z,9.80
2023-02-15T01:58:54.526Z,8.87
2023-02-15T02:01:21.393Z,9.07
2023-02-15T02:04:12.108Z,8.47
2023-02-15T02:06:40.047Z,9.00
2023-02-15T02:09:07.118Z,8.70
2023-02-15T02:11:34.365Z,10.13
2023-02-15T02:14:01.069Z,10.63
2023-02-15T02:16:52.545Z,10.40
2023-02-15T02:19:40.699Z,10.63
2023-02-15T02:22:22.312Z,10.83
2023-02-15T02:25:10.428Z,13.53
2023-02-15T02:28:05.924Z,12.43
2023-02-15T02:30:57.943Z,12.80
2023-02-15T02:33:34.708Z,12.00
2023-02-15T02:36:18.595Z,11.67
2023-02-15T02:38:59.750Z,12.63
2023-02-15T02:41:44.498Z,12.53
2023-02-15T02:44:18.426Z,12.77
2023-02-15T02:46:53.742Z,11.43
2023-02-15T02:49:37.810Z,10.97
2023-02-15T02:52:07.932Z,10.95
2023-02-15T02:54:36.556Z,11.73
2023-02-15T02:57:05.620Z,9.87
2023-02-15T02:59:35.062Z,10.30
2023-02-15T03:02:33.177Z,11.63
2023-02-15T03:05:04.641Z,12.37
2023-02-15T03:07:32.793Z,11.63
2023-02-15T03:10:01.767Z,11.50
2023-02-15T03:12:30.958Z,10.23
2023-02-15T03:15:05.281Z,11.83
2023-02-15T03:20:04.305Z,9.97
2023-02-15T03:22:41.764Z,10.97
2023-02-15T03:25:12.418Z,10.70
2023-02-15T03:27:42.303Z,11.40
2023-02-15T03:30:10.164Z,13.27
2023-02-15T03:32:37.555Z,12.47
2023-02-15T03:35:04.529Z,11.97
2023-02-15T03:37:44.864Z,13.13
2023-02-15T03:40:36.153Z,13.40
2023-02-15T03:43:18.282Z,14.47
2023-02-15T03:45:55.521Z,13.00
2023-02-15T03:48:25.882Z,12.10
2023-02-15T03:51:14.149Z,12.30
2023-02-15T03:53:41.292Z,11.83
2023-02-15T03:56:07.876Z,13.27
2023-02-15T03:58:53.181Z,13.90
2023-02-15T04:01:57.070Z,13.33
2023-02-15T04:04:27.258Z,12.53
2023-02-15T04:06:53.885Z,12.57
2023-02-15T04:09:39.124Z,11.37
2023-02-15T04:12:07.452Z,12.30
2023-02-15T04:14:52.908Z,13.20
2023-02-15T04:17:19.496Z,13.10
2023-02-15T04:20:04.746Z,13.80
2023-02-15T04:22:49.834Z,13.37
2023-02-15T04:25:16.480Z,11.90
2023-02-15T04:27:51.295Z,12.93
2023-02-15T04:30:19.496Z,14.63
2023-02-15T04:32:46.378Z,13.20
2023-02-15T04:35:13.718Z,13.63
2023-02-15T04:37:41.350Z,13.83
2023-02-15T04:40:10.406Z,15.47
2023-02-15T04:42:37.171Z,15.10
2023-02-15T04:45:04.201Z,13.57
2023-02-15T04:47:31.293Z,12.63
2023-02-15T04:49:58.253Z,14.00
2023-02-15T04:52:25.728Z,12.90
2023-02-15T04:54:52.414Z,15.20
2023-02-15T04:57:19.071Z,14.43
2023-02-15T04:59:45.712Z,16.00
2023-02-15T05:02:15.375Z,14.53
2023-02-15T05:04:42.023Z,14.70
2023-02-15T05:07:08.728Z,14.07
2023-02-15T05:09:35.410Z,14.80
2023-02-15T05:12:02.114Z,13.70
2023-02-15T05:14:28.832Z,13.57
2023-02-15T05:16:55.528Z,12.50
2023-02-15T05:19:24.181Z,13.30
2023-02-15T05:21:50.789Z,15.57
2023-02-15T05:24:36.160Z,13.73
2023-02-15T05:27:21.479Z,13.33
2023-02-15T05:29:48.137Z,12.60
2023-02-15T05:32:15.300Z,13.53
2023-02-15T05:34:42.125Z,12.87
2023-02-15T05:37:09.363Z,14.23
2023-02-15T05:39:35.977Z,15.47
2023-02-15T05:42:03.393Z,15.63
2023-02-15T05:44:30.436Z,17.47
2023-02-15T05:46:57.017Z,15.03
2023-02-15T05:49:23.731Z,16.93
2023-02-15T05:51:50.357Z,17.70
2023-02-15T05:54:17.334Z,17.40
2023-02-15T05:56:43.969Z,17.40
2023-02-15T05:59:10.744Z,19.40
2023-02-15T06:01:37.361Z,17.57
2023-02-15T06:04:06.170Z,17.17
2023-02-15T06:06:32.777Z,20.50
2023-02-15T06:08:59.403Z,20.10
2023-02-15T06:11:26.031Z,19.83
2023-02-15T06:13:53.007Z,18.73
2023-02-15T06:16:19.776Z,20.47
2023-02-15T06:18:46.473Z,18.83
2023-02-15T06:21:13.224Z,19.77
2023-02-15T06:23:39.873Z,19.20
2023-02-15T06:26:06.503Z,20.37
2023-02-15T06:28:33.804Z,20.27
2023-02-15T06:31:00.489Z,20.03
2023-02-15T06:33:27.223Z,18.77
2023-02-15T06:35:53.886Z,20.53
2023-02-15T06:38:21.423Z,21.37
2023-02-15T06:40:50.740Z,19.00
2023-02-15T06:43:17.368Z,20.57
2023-02-15T06:45:44.072Z,17.97
2023-02-15T06:48:13.530Z,22.30
2023-02-15T06:50:40.662Z,20.80
2023-02-15T06:53:07.386Z,21.60
2023-02-15T06:55:35.202Z,21.33
2023-02-15T06:58:05.033Z,20.77
2023-02-15T07:00:31.669Z,22.37
2023-02-15T07:02:59.688Z,22.60
2023-02-15T07:05:32.058Z,20.87
2023-02-15T07:07:59.742Z,21.73
2023-02-15T07:10:27.327Z,21.40
2023-02-15T07:12:54.506Z,22.87
2023-02-15T07:15:21.970Z,21.30
2023-02-15T07:17:49.557Z,19.90
2023-02-15T07:20:19.574Z,22.30
2023-02-15T07:22:46.361Z,19.23
2023-02-15T07:25:14.016Z,22.27
2023-02-15T07:27:41.205Z,20.13
2023-02-15T07:30:10.316Z,20.50
2023-02-15T07:32:37.069Z,22.13
2023-02-15T07:35:03.755Z,21.57
2023-02-15T07:37:30.394Z,21.13
2023-02-15T07:39:57.127Z,23.47
2023-02-15T07:42:24.059Z,23.67
2023-02-15T07:44:51.036Z,22.20
2023-02-15T07:47:17.700Z,22.80
2023-02-15T07:49:44.554Z,21.40
2023-02-15T07:52:11.329Z,22.37
2023-02-15T07:54:37.991Z,22.63
2023-02-15T07:57:05.383Z,22.70
2023-02-15T07:59:32.312Z,22.33
2023-02-15T08:01:58.969Z,23.47
2023-02-15T08:04:25.629Z,23.27
2023-02-15T08:06:55.921Z,24.60
2023-02-15T08:09:22.932Z,25.80
2023-02-15T08:11:50.157Z,23.77
2023-02-15T08:14:21.369Z,25.97
2023-02-15T08:16:50.310Z,24.77
2023-02-15T08:19:25.592Z,24.70
2023-02-15T08:21:54.608Z,24.70
2023-02-15T08:24:23.282Z,24.80
2023-02-15T08:26:50.988Z,24.87
2023-02-15T08:29:19.867Z,26.77
2023-02-15T08:31:46.943Z,30.17
2023-02-15T08:34:17.158Z,34.73
2023-02-15T08:36:46.069Z,32.77
2023-02-15T08:39:14.498Z,27.40
2023-02-15T08:41:43.946Z,25.17
2023-02-15T08:44:11.694Z,27.00
2023-02-15T08:46:40.471Z,22.43
2023-02-15T08:49:07.147Z,25.23
2023-02-15T08:51:36.201Z,25.67
2023-02-15T08:54:08.200Z,25.30
2023-02-15T08:56:37.053Z,25.53
2023-02-15T08:59:04.553Z,25.07
2023-02-15T09:01:33.256Z,26.53
2023-02-15T09:04:02.491Z,23.83
2023-02-15T09:06:29.656Z,23.53
2023-02-15T09:08:57.193Z,23.33
2023-02-15T09:11:31.831Z,22.30
2023-02-15T09:14:14.593Z,24.00
2023-02-15T09:16:43.092Z,23.53
2023-02-15T09:19:09.911Z,23.97
2023-02-15T09:21:38.998Z,26.07
2023-02-15T09:24:13.374Z,23.80
2023-02-15T09:26:42.148Z,36.83
2023-02-15T09:29:09.820Z,25.13
2023-02-15T09:31:42.518Z,22.33
2023-02-15T09:34:09.435Z,23.33
2023-02-15T09:36:38.487Z,23.93
2023-02-15T09:39:17.024Z,25.97
2023-02-15T09:42:02.547Z,26.63
2023-02-15T09:44:44.531Z,25.80
2023-02-15T09:47:23.329Z,26.53
2023-02-15T09:50:03.437Z,24.47
2023-02-15T09:53:01.266Z,23.13
2023-02-15T09:55:40.264Z,32.77
2023-02-15T09:58:28.781Z,24.17
2023-02-15T10:01:14.461Z,25.50
2023-02-15T10:03:59.773Z,24.90
2023-02-15T10:06:57.897Z,25.20
2023-02-15T10:09:43.679Z,22.57
2023-02-15T10:12:32.711Z,22.87
2023-02-15T10:15:14.842Z,22.83
2023-02-15T10:18:04.990Z,26.63
2023-02-15T10:20:41.330Z,23.87
2023-02-15T10:23:28.203Z,22.43
2023-02-15T10:26:06.215Z,29.87
2023-02-15T10:28:47.628Z,24.00
2023-02-15T10:31:25.805Z,22.03
2023-02-15T10:34:04.244Z,19.97
2023-02-15T10:36:41.604Z,21.63
2023-02-15T10:39:10.838Z,24.10
2023-02-15T10:42:05.308Z,21.20
2023-02-15T10:44:44.315Z,22.38
2023-02-15T10:47:29.010Z,20.37
2023-02-15T10:50:17.902Z,20.70
2023-02-15T10:53:15.705Z,19.73
2023-02-15T10:56:08.093Z,20.07
2023-02-15T10:58:53.203Z,20.77
2023-02-15T11:01:43.118Z,23.57
2023-02-15T11:04:45.415Z,25.07
2023-02-15T11:07:22.930Z,24.00
2023-02-15T11:09:58.218Z,21.57
2023-02-15T11:12:26.104Z,21.30
2023-02-15T11:15:17.572Z,21.90
2023-02-15T11:17:48.274Z,23.90
2023-02-15T11:20:24.380Z,22.37
2023-02-15T11:23:19.641Z,20.40
2023-02-15T11:25:53.787Z,19.73
2023-02-15T11:28:24.724Z,20.15
2023-02-15T11:30:55.863Z,21.10
2023-02-15T11:33:27.579Z,20.23
2023-02-15T11:35:59.592Z,22.97
2023-02-15T11:38:30.084Z,22.13
2023-02-15T11:41:01.099Z,20.60
2023-02-15T11:43:43.066Z,20.40
2023-02-15T11:46:12.957Z,22.13
2023-02-15T11:48:40.159Z,18.77
2023-02-15T11:51:10.045Z,25.20
2023-02-15T11:53:38.786Z,21.77
2023-02-15T11:56:07.193Z,25.17
2023-02-15T11:58:38.753Z,21.33
2023-02-15T12:01:33.582Z,23.23
2023-02-15T12:04:22.799Z,22.63
2023-02-15T12:06:54.561Z,19.57
2023-02-15T12:09:42.247Z,20.63
2023-02-15T12:12:27.382Z,19.77
2023-02-15T12:14:56.457Z,19.03
2023-02-15T12:17:26.077Z,20.80
2023-02-15T12:19:54.338Z,19.40
2023-02-15T12:22:26.859Z,19.53
2023-02-15T12:25:00.554Z,21.87
2023-02-15T12:27:34.468Z,19.98
2023-02-15T12:30:22.602Z,18.67
2023-02-15T12:32:52.938Z,20.70
2023-02-15T12:35:29.025Z,20.90
2023-02-15T12:37:58.342Z,20.60
2023-02-15T12:40:31.330Z,19.20
2023-02-15T12:42:58.756Z,20.58
2023-02-15T12:45:33.832Z,19.73
2023-02-15T12:48:17.318Z,20.07
2023-02-15T12:50:55.042Z,18.73
2023-02-15T12:53:24.567Z,19.07
2023-02-15T12:56:08.578Z,19.10
2023-02-15T12:58:39.949Z,19.95
2023-02-15T13:01:09.676Z,21.27
2023-02-15T13:03:36.994Z,20.70
2023-02-15T13:06:08.288Z,19.20
2023-02-15T13:08:39.315Z,24.53
2023-02-15T13:11:11.058Z,22.07
2023-02-15T13:13:56.007Z,22.67
2023-02-15T13:16:31.608Z,21.87
2023-02-15T13:18:58.785Z,23.00
2023-02-15T13:21:28.112Z,20.27
2023-02-15T13:24:02.604Z,20.30
2023-02-15T13:26:32.968Z,17.33
2023-02-15T13:29:30.042Z,18.90
2023-02-15T13:31:59.129Z,18.43
2023-02-15T13:34:37.517Z,20.40
2023-02-15T13:37:11.573Z,19.77
2023-02-15T13:39:46.133Z,19.75
2023-02-15T13:42:24.315Z,19.27
2023-02-15T13:45:24.395Z,17.90
2023-02-15T13:48:02.283Z,18.67
2023-02-15T13:50:35.662Z,18.67
2023-02-15T13:53:08.221Z,19.08
2023-02-15T13:55:39.929Z,18.63
2023-02-15T13:58:24.908Z,18.17
2023-02-15T14:00:59.593Z,18.63
2023-02-15T14:03:39.140Z,17.33
2023-02-15T14:06:38.164Z,17.57
2023-02-15T14:09:35.755Z,18.10
2023-02-15T14:12:27.355Z,17.37
2023-02-15T14:15:01.434Z,19.57
2023-02-15T14:17:47.238Z,20.10
2023-02-15T14:20:32.017Z,19.87
2023-02-15T14:23:12.117Z,18.73
2023-02-15T14:25:49.473Z,18.47
2023-02-15T14:28:27.548Z,18.43
2023-02-15T14:30:54.474Z,18.70
2023-02-15T14:33:38.800Z,20.13
2023-02-15T14:36:08.174Z,19.40
2023-02-15T14:39:41.929Z,16.90
2023-02-15T14:42:19.347Z,16.10
2023-02-15T14:45:13.877Z,18.87
2023-02-15T14:47:44.736Z,18.30
2023-02-15T14:50:38.303Z,19.13
2023-02-15T14:53:32.067Z,17.50
2023-02-15T14:56:19.156Z,18.93
2023-02-15T14:58:53.198Z,20.13
2023-02-15T15:02:09.299Z,18.25
2023-02-15T15:04:38.820Z,19.73
2023-02-15T15:07:13.103Z,18.43
2023-02-15T15:09:41.736Z,19.63
2023-02-15T15:12:23.583Z,18.80
2023-02-15T15:14:52.895Z,17.07
2023-02-15T15:17:39.218Z,19.37
2023-02-15T15:20:19.253Z,17.40
2023-02-15T15:22:45.931Z,16.63
2023-02-15T15:25:42.041Z,15.57
2023-02-15T15:28:08.883Z,19.10
2023-02-15T15:30:35.547Z,17.03
2023-02-15T15:33:30.721Z,18.47
2023-02-15T15:36:27.150Z,20.40
2023-02-15T15:38:59.881Z,18.97
2023-02-15T15:41:54.461Z,17.03
2023-02-15T15:45:12.069Z,19.42
2023-02-15T15:47:38.703Z,18.00
2023-02-15T15:50:14.153Z,21.00
2023-02-15T15:52:45.447Z,18.90
2023-02-15T15:55:18.352Z,17.40
2023-02-15T15:57:49.359Z,17.97
2023-02-15T16:00:32.210Z,18.50
2023-02-15T16:02:58.940Z,17.43
2023-02-15T16:05:25.981Z,18.23
2023-02-15T16:07:52.643Z,17.23
2023-02-15T16:10:27.786Z,15.40
2023-02-15T16:12:55.767Z,17.77
2023-02-15T16:15:32.075Z,17.57
2023-02-15T16:17:59.794Z,17.60
2023-02-15T16:20:33.016Z,17.83
2023-02-15T16:23:13.730Z,17.93
2023-02-15T16:26:03.991Z,16.63
2023-02-15T16:28:30.923Z,18.33
2023-02-15T16:31:08.588Z,18.80
2023-02-15T16:33:38.449Z,18.27
2023-02-15T16:36:08.805Z,18.60
2023-02-15T16:38:41.470Z,17.47
2023-02-15T16:41:08.461Z,17.77
2023-02-15T16:43:35.177Z,19.43
2023-02-15T16:46:06.524Z,20.10
2023-02-15T16:48:34.716Z,18.93
2023-02-15T16:51:01.931Z,20.03
2023-02-15T16:53:29.788Z,17.47
2023-02-15T16:55:58.518Z,17.00
2023-02-15T16:58:39.333Z,17.77
2023-02-15T17:01:08.821Z,17.60
2023-02-15T17:03:36.758Z,18.07
2023-02-15T17:06:04.499Z,18.53
2023-02-15T17:08:38.048Z,17.83
2023-02-15T17:11:19.253Z,16.20
2023-02-15T17:14:05.076Z,16.50
2023-02-15T17:16:34.300Z,18.43
2023-02-15T17:19:03.229Z,16.87
2023-02-15T17:21:33.877Z,17.63
2023-02-15T17:24:02.305Z,17.87
2023-02-15T17:26:32.055Z,17.60
2023-02-15T17:29:12.358Z,18.27
2023-02-15T17:31:39.260Z,17.13
2023-02-15T17:34:06.137Z,19.93
2023-02-15T17:36:32.962Z,18.07
2023-02-15T17:38:59.626Z,17.97
2023-02-15T17:41:28.253Z,19.40
2023-02-15T17:43:54.905Z,16.60
2023-02-15T17:46:24.894Z,14.60
2023-02-15T17:48:53.179Z,16.53
2023-02-15T17:51:20.729Z,16.77
2023-02-15T17:54:07.117Z,17.93
2023-02-15T17:56:34.710Z,14.77
2023-02-15T17:59:01.452Z,16.70
2023-02-15T18:01:46.795Z,17.57
2023-02-15T18:04:33.645Z,17.43
2023-02-15T18:07:18.916Z,19.97
2023-02-15T18:10:04.218Z,17.00
2023-02-15T18:12:36.698Z,18.37
2023-02-15T18:15:03.768Z,18.67
2023-02-15T18:17:34.616Z,17.87
2023-02-15T18:20:05.591Z,19.77
2023-02-15T18:22:32.929Z,18.27
2023-02-15T18:24:59.674Z,18.13
2023-02-15T18:27:26.278Z,17.07
2023-02-15T18:29:52.890Z,18.40
2023-02-15T18:32:29.427Z,20.80
2023-02-15T18:34:57.680Z,21.30
2023-02-15T18:37:25.536Z,20.17
2023-02-15T18:39:54.266Z,20.40
2023-02-15T18:42:26.988Z,19.30
2023-02-15T18:44:58.634Z,19.10
2023-02-15T18:47:25.512Z,17.47
2023-02-15T18:49:52.277Z,18.13
2023-02-15T18:52:24.352Z,18.90
2023-02-15T18:54:55.137Z,18.20
2023-02-15T18:57:21.873Z,20.57
2023-02-15T18:59:48.510Z,19.80
2023-02-15T19:02:17.714Z,19.03
2023-02-15T19:04:45.231Z,21.70
2023-02-15T19:07:29.879Z,20.03
2023-02-15T19:12:23.745Z,19.67
2023-02-15T19:14:52.942Z,21.00
2023-02-15T19:17:21.533Z,20.93
2023-02-15T19:19:48.259Z,19.63
2023-02-15T19:22:30.376Z,18.97
2023-02-15T19:25:00.311Z,21.27
2023-02-15T19:27:34.910Z,18.73
2023-02-15T19:30:03.682Z,19.47
2023-02-15T19:32:31.165Z,20.57
2023-02-15T19:34:57.826Z,20.30
2023-02-15T19:37:35.101Z,20.63
2023-02-15T19:40:02.030Z,22.53
2023-02-15T19:42:28.870Z,20.43
2023-02-15T19:44:55.531Z,22.03
2023-02-15T19:47:22.177Z,19.37
2023-02-15T19:49:48.827Z,22.10
2023-02-15T19:52:21.043Z,20.00
2023-02-15T19:54:48.397Z,16.23
2023-02-15T19:57:15.004Z,18.50
2023-02-15T19:59:42.142Z,18.37
2023-02-15T20:02:18.081Z,19.07
2023-02-15T20:04:44.871Z,18.33
2023-02-15T20:07:28.469Z,17.73
2023-02-15T20:09:55.421Z,17.60
2023-02-15T20:12:26.267Z,18.00
2023-02-15T20:14:53.137Z,18.27
2023-02-15T20:17:19.977Z,17.30
2023-02-15T20:19:46.758Z,17.20
2023-02-15T20:22:24.300Z,16.77
2023-02-15T20:24:51.770Z,16.17
2023-02-15T20:27:18.939Z,16.67
2023-02-15T20:29:45.559Z,15.10
2023-02-15T20:32:12.622Z,15.93
2023-02-15T20:34:39.420Z,15.50
2023-02-15T20:37:06.232Z,18.97
2023-02-15T20:39:35.108Z,17.87
2023-02-15T20:42:02.106Z,16.80
2023-02-15T20:44:31.267Z,17.30
2023-02-15T20:47:00.375Z,16.17
2023-02-15T20:49:27.860Z,17.33
2023-02-15T20:51:56.297Z,16.80
2023-02-15T20:54:24.517Z,15.80
2023-02-15T20:56:56.845Z,15.47
2023-02-15T20:59:32.008Z,16.73
2023-02-15T21:02:02.154Z,16.13
2023-02-15T21:04:32.808Z,15.87
2023-02-15T21:07:00.718Z,16.27
2023-02-15T21:09:28.507Z,16.53
2023-02-15T21:11:59.184Z,16.67
2023-02-15T21:14:27.143Z,15.83
2023-02-15T21:16:54.187Z,16.67
2023-02-15T21:19:22.597Z,17.03
2023-02-15T21:21:51.484Z,17.03
2023-02-15T21:24:28.763Z,16.13
2023-02-15T21:27:01.244Z,15.60
2023-02-15T21:29:30.391Z,15.87
2023-02-15T21:32:01.397Z,18.43
2023-02-15T21:34:29.787Z,17.50
2023-02-15T21:36:56.485Z,18.53
2023-02-15T21:39:30.653Z,17.50
2023-02-15T21:42:22.241Z,16.70
2023-02-15T21:45:09.709Z,16.13
2023-02-15T21:47:51.677Z,16.47
2023-02-15T21:50:40.292Z,17.43
2023-02-15T21:53:13.154Z,16.40
2023-02-15T21:55:39.822Z,16.50
2023-02-15T21:58:06.710Z,18.20
2023-02-15T22:00:35.002Z,17.17
2023-02-15T22:03:05.132Z,17.77
2023-02-15T22:05:33.905Z,17.23
2023-02-15T22:08:00.914Z,17.73
2023-02-15T22:10:32.736Z,14.93
2023-02-15T22:13:03.592Z,15.80
2023-02-15T22:15:37.062Z,15.83
2023-02-15T22:18:05.199Z,14.30
2023-02-15T22:20:32.178Z,15.43
2023-02-15T22:22:59.090Z,15.40
2023-02-15T22:25:27.060Z,15.23
2023-02-15T22:27:54.354Z,14.33
2023-02-15T22:30:24.008Z,14.33
2023-02-15T22:32:50.664Z,18.07
2023-02-15T22:35:21.254Z,15.17
2023-02-15T22:37:48.127Z,15.70
2023-02-15T22:40:16.372Z,15.20
2023-02-15T22:42:47.042Z,14.70
2023-02-15T22:45:19.279Z,14.37
2023-02-15T22:47:50.858Z,14.57
2023-02-15T22:50:22.801Z,13.87
2023-02-15T22:52:50.038Z,14.33
2023-02-15T22:55:22.213Z,14.50
2023-02-15T22:57:51.652Z,13.60
2023-02-15T23:00:26.826Z,13.30
2023-02-15T23:02:54.733Z,13.87
2023-02-15T23:05:24.569Z,15.47
2023-02-15T23:07:51.420Z,14.63
2023-02-15T23:10:22.587Z,14.87
2023-02-15T23:13:12.218Z,13.10
2023-02-15T23:15:39.839Z,13.33
2023-02-15T23:18:19.280Z,14.73
2023-02-15T23:20:49.456Z,13.70
2023-02-15T23:23:16.463Z,15.17
2023-02-15T23:25:43.420Z,14.83
2023-02-15T23:28:22.829Z,16.33
2023-02-15T23:30:49.577Z,14.80
2023-02-15T23:33:16.436Z,14.63
2023-02-15T23:35:43.096Z,15.77
2023-02-15T23:38:18.957Z,17.17
2023-02-15T23:41:11.253Z,17.27
2023-02-15T23:43:40.974Z,15.67
2023-02-15T23:46:08.396Z,14.80
2023-02-15T23:48:37.783Z,16.37
2023-02-15T23:51:06.364Z,16.67
2023-02-15T23:53:33.209Z,16.70
2023-02-15T23:56:00.002Z,16.83
2023-02-15T23:58:38.136Z,17.17
